createdAt,value
2023-05-14T00:00:51.831Z,94375.00
2023-05-14T00:01:51.933Z,94375.00
2023-05-14T00:02:52.120Z,94375.00
2023-05-14T00:03:52.208Z,94375.00
2023-05-14T00:04:52.091Z,94371.00
2023-05-14T00:05:52.152Z,94371.00
2023-05-14T00:06:52.222Z,94375.00
2023-05-14T00:07:52.271Z,94371.00
2023-05-14T00:08:52.298Z,94371.00
2023-05-14T00:09:52.361Z,94373.00
2023-05-14T00:10:52.432Z,94375.00
2023-05-14T00:11:52.448Z,94375.00
2023-05-14T00:12:52.496Z,94373.00
2023-05-14T00:13:52.539Z,94375.00
2023-05-14T00:14:52.597Z,94369.00
2023-05-14T00:15:52.699Z,94371.00
2023-05-14T00:16:52.685Z,94369.00
2023-05-14T00:17:52.764Z,94369.00
2023-05-14T00:18:52.811Z,94369.00
2023-05-14T00:19:52.833Z,94367.00
2023-05-14T00:20:52.875Z,94367.00
2023-05-14T00:21:52.921Z,94365.00
2023-05-14T00:22:52.959Z,94365.00
2023-05-14T00:23:53.018Z,94365.00
2023-05-14T00:24:53.051Z,94365.00
2023-05-14T00:25:53.128Z,94363.00
2023-05-14T00:26:53.144Z,94361.00
2023-05-14T00:27:53.203Z,94361.00
2023-05-14T00:28:53.224Z,94361.00
2023-05-14T00:29:53.286Z,94359.00
2023-05-14T00:30:53.435Z,94357.00
2023-05-14T00:31:53.379Z,94357.00
2023-05-14T00:32:53.419Z,94355.00
2023-05-14T00:33:53.433Z,94355.00
2023-05-14T00:34:53.456Z,94355.00
2023-05-14T00:35:53.470Z,94357.00
2023-05-14T00:36:53.508Z,94353.00
2023-05-14T00:37:53.542Z,94353.00
2023-05-14T00:38:53.545Z,94355.00
2023-05-14T00:39:53.592Z,94352.00
2023-05-14T00:40:53.623Z,94355.00
2023-05-14T00:41:53.660Z,94353.00
2023-05-14T00:42:53.704Z,94350.00
2023-05-14T00:43:53.740Z,94352.00
2023-05-14T00:44:53.775Z,94350.00
2023-05-14T00:45:53.838Z,94352.00
2023-05-14T00:46:53.857Z,94352.00
2023-05-14T00:47:53.916Z,94352.00
2023-05-14T00:48:53.915Z,94352.00
2023-05-14T00:49:53.952Z,94350.00
2023-05-14T00:50:53.971Z,94350.00
2023-05-14T00:51:54.004Z,94348.00
2023-05-14T00:52:54.002Z,94348.00
2023-05-14T00:53:54.034Z,94352.00
2023-05-14T00:54:54.053Z,94350.00
2023-05-14T00:55:54.058Z,94350.00
2023-05-14T00:56:54.065Z,94352.00
2023-05-14T00:57:54.085Z,94353.00
2023-05-14T00:58:54.070Z,94352.00
2023-05-14T00:59:54.069Z,94352.00
2023-05-14T01:00:54.108Z,94352.00
2023-05-14T01:01:54.085Z,94353.00
2023-05-14T01:02:54.195Z,94352.00
2023-05-14T01:03:54.151Z,94352.00
2023-05-14T01:04:54.104Z,94353.00
2023-05-14T01:05:54.120Z,94353.00
2023-05-14T01:06:54.138Z,94353.00
2023-05-14T01:07:54.132Z,94352.00
2023-05-14T01:08:54.143Z,94353.00
2023-05-14T01:09:54.141Z,94353.00
2023-05-14T01:10:54.131Z,94353.00
2023-05-14T01:11:54.130Z,94353.00
2023-05-14T01:12:54.151Z,94352.00
2023-05-14T01:13:54.137Z,94352.00
2023-05-14T01:14:54.194Z,94350.00
2023-05-14T01:15:54.149Z,94348.00
2023-05-14T01:16:54.203Z,94348.00
2023-05-14T01:17:54.247Z,94346.00
2023-05-14T01:18:54.192Z,94344.00
2023-05-14T01:19:54.174Z,94344.00
2023-05-14T01:20:54.168Z,94344.00
2023-05-14T01:21:54.149Z,94344.00
2023-05-14T01:22:54.166Z,94344.00
2023-05-14T01:23:54.203Z,94346.00
2023-05-14T01:24:54.183Z,94344.00
2023-05-14T01:25:54.210Z,94346.00
2023-05-14T01:26:54.195Z,94344.00
2023-05-14T01:27:54.232Z,94348.00
2023-05-14T01:28:54.243Z,94344.00
2023-05-14T01:29:54.267Z,94346.00
2023-05-14T01:30:54.305Z,94344.00
2023-05-14T01:31:54.372Z,94348.00
2023-05-14T01:32:54.351Z,94344.00
2023-05-14T01:33:54.325Z,94346.00
2023-05-14T01:34:54.334Z,94342.00
2023-05-14T01:35:54.314Z,94344.00
2023-05-14T01:36:54.310Z,94342.00
2023-05-14T01:37:54.308Z,94342.00
2023-05-14T01:38:54.322Z,94344.00
2023-05-14T01:39:54.368Z,94340.00
2023-05-14T01:40:54.335Z,94340.00
2023-05-14T01:41:54.308Z,94340.00
2023-05-14T01:42:54.334Z,94340.00
2023-05-14T01:43:54.316Z,94340.00
2023-05-14T01:44:54.320Z,94340.00
2023-05-14T01:45:54.456Z,94342.00
2023-05-14T01:46:54.317Z,94340.00
2023-05-14T01:47:54.412Z,94340.00
2023-05-14T01:48:54.327Z,94338.00
2023-05-14T01:49:54.324Z,94340.00
2023-05-14T01:50:54.328Z,94340.00
2023-05-14T01:51:54.329Z,94340.00
2023-05-14T01:52:54.307Z,94342.00
2023-05-14T01:53:54.320Z,94340.00
2023-05-14T01:54:54.317Z,94338.00
2023-05-14T01:55:54.305Z,94338.00
2023-05-14T01:56:54.295Z,94338.00
2023-05-14T01:57:54.314Z,94338.00
2023-05-14T01:58:54.318Z,94340.00
2023-05-14T01:59:54.316Z,94340.00
2023-05-14T02:00:54.320Z,94340.00
2023-05-14T02:01:54.389Z,94342.00
2023-05-14T02:02:54.374Z,94340.00
2023-05-14T02:03:54.374Z,94340.00
2023-05-14T02:04:54.321Z,94340.00
2023-05-14T02:05:54.307Z,94338.00
2023-05-14T02:06:54.319Z,94340.00
2023-05-14T02:07:54.326Z,94338.00
2023-05-14T02:08:54.318Z,94340.00
2023-05-14T02:09:54.300Z,94338.00
2023-05-14T02:10:54.310Z,94338.00
2023-05-14T02:11:54.312Z,94336.00
2023-05-14T02:12:54.311Z,94332.00
2023-05-14T02:13:54.301Z,94336.00
2023-05-14T02:14:54.306Z,94330.00
2023-05-14T02:15:54.329Z,94330.00
2023-05-14T02:16:54.320Z,94330.00
2023-05-14T02:17:54.350Z,94330.00
2023-05-14T02:18:54.345Z,94328.00
2023-05-14T02:19:54.324Z,94330.00
2023-05-14T02:20:54.322Z,94332.00
2023-05-14T02:21:54.292Z,94328.00
2023-05-14T02:22:54.293Z,94330.00
2023-05-14T02:23:54.295Z,94328.00
2023-05-14T02:24:54.298Z,94330.00
2023-05-14T02:25:54.297Z,94328.00
2023-05-14T02:26:54.289Z,94328.00
2023-05-14T02:27:54.303Z,94328.00
2023-05-14T02:28:54.318Z,94328.00
2023-05-14T02:29:54.309Z,94328.00
2023-05-14T02:30:54.314Z,94326.00
2023-05-14T02:31:54.377Z,94326.00
2023-05-14T02:32:54.440Z,94324.00
2023-05-14T02:33:54.313Z,94324.00
2023-05-14T02:34:54.301Z,94326.00
2023-05-14T02:35:54.287Z,94324.00
2023-05-14T02:36:54.288Z,94324.00
2023-05-14T02:37:54.304Z,94324.00
2023-05-14T02:38:54.279Z,94324.00
2023-05-14T02:39:54.282Z,94324.00
2023-05-14T02:40:54.306Z,94322.00
2023-05-14T02:41:54.278Z,94322.00
2023-05-14T02:42:54.308Z,94320.00
2023-05-14T02:43:54.310Z,94320.00
2023-05-14T02:44:54.310Z,94316.00
2023-05-14T02:45:54.305Z,94314.00
2023-05-14T02:46:54.333Z,94314.00
2023-05-14T02:47:54.330Z,94316.00
2023-05-14T02:48:54.307Z,94310.00
2023-05-14T02:49:54.312Z,94310.00
2023-05-14T02:50:54.306Z,94308.00
2023-05-14T02:51:54.312Z,94308.00
2023-05-14T02:52:54.305Z,94305.00
2023-05-14T02:53:54.307Z,94305.00
2023-05-14T02:54:54.322Z,94303.00
2023-05-14T02:55:54.306Z,94305.00
2023-05-14T02:56:54.295Z,94301.00
2023-05-14T02:57:54.311Z,94303.00
2023-05-14T02:58:54.291Z,94303.00
2023-05-14T02:59:54.305Z,94303.00
2023-05-14T03:00:54.355Z,94301.00
2023-05-14T03:01:54.312Z,94301.00
2023-05-14T03:02:54.356Z,94303.00
2023-05-14T03:03:54.337Z,94299.00
2023-05-14T03:04:54.320Z,94299.00
2023-05-14T03:05:54.324Z,94301.00
2023-05-14T03:06:54.353Z,94299.00
2023-05-14T03:07:54.326Z,94303.00
2023-05-14T03:08:54.356Z,94303.00
2023-05-14T03:09:54.346Z,94303.00
2023-05-14T03:10:54.358Z,94306.00
2023-05-14T03:11:54.354Z,94306.00
2023-05-14T03:12:54.365Z,94306.00
2023-05-14T03:13:54.363Z,94305.00
2023-05-14T03:14:54.366Z,94305.00
2023-05-14T03:15:54.372Z,94303.00
2023-05-14T03:16:54.390Z,94303.00
2023-05-14T03:17:54.463Z,94305.00
2023-05-14T03:18:54.404Z,94303.00
2023-05-14T03:19:54.395Z,94303.00
2023-05-14T03:20:54.430Z,94301.00
2023-05-14T03:21:54.389Z,94301.00
2023-05-14T03:22:54.406Z,94301.00
2023-05-14T03:23:54.419Z,94297.00
2023-05-14T03:24:54.424Z,94299.00
2023-05-14T03:25:54.441Z,94299.00
2023-05-14T03:26:54.433Z,94297.00
2023-05-14T03:27:54.445Z,94295.00
2023-05-14T03:28:54.458Z,94297.00
2023-05-14T03:29:54.453Z,94295.00
2023-05-14T03:30:54.496Z,94297.00
2023-05-14T03:31:54.480Z,94297.00
2023-05-14T03:32:54.514Z,94293.00
2023-05-14T03:33:54.482Z,94293.00
2023-05-14T03:34:54.500Z,94291.00
2023-05-14T03:35:54.502Z,94293.00
2023-05-14T03:36:54.527Z,94289.00
2023-05-14T03:37:54.533Z,94291.00
2023-05-14T03:38:54.521Z,94289.00
2023-05-14T03:39:54.524Z,94293.00
2023-05-14T03:40:54.567Z,94291.00
2023-05-14T03:41:54.527Z,94289.00
2023-05-14T03:42:54.531Z,94291.00
2023-05-14T03:43:54.558Z,94291.00
2023-05-14T03:44:54.554Z,94291.00
2023-05-14T03:45:54.567Z,94291.00
2023-05-14T03:46:54.597Z,94291.00
2023-05-14T03:47:54.647Z,94289.00
2023-05-14T03:48:54.628Z,94291.00
2023-05-14T03:49:54.609Z,94291.00
2023-05-14T03:50:54.617Z,94291.00
2023-05-14T03:51:54.633Z,94291.00
2023-05-14T03:52:54.615Z,94291.00
2023-05-14T03:53:54.619Z,94291.00
2023-05-14T03:54:54.641Z,94291.00
2023-05-14T03:55:54.646Z,94293.00
2023-05-14T03:56:54.646Z,94295.00
2023-05-14T03:57:54.669Z,94297.00
2023-05-14T03:58:54.670Z,94295.00
2023-05-14T03:59:54.663Z,94299.00
2023-05-14T04:00:54.696Z,94301.00
2023-05-14T04:01:54.698Z,94299.00
2023-05-14T04:02:54.717Z,94301.00
2023-05-14T04:03:54.786Z,94303.00
2023-05-14T04:04:54.754Z,94299.00
2023-05-14T04:05:54.724Z,94301.00
2023-05-14T04:06:54.734Z,94305.00
2023-05-14T04:07:54.733Z,94303.00
2023-05-14T04:08:54.737Z,94303.00
2023-05-14T04:09:54.743Z,94301.00
2023-05-14T04:10:54.755Z,94301.00
2023-05-14T04:11:54.782Z,94301.00
2023-05-14T04:12:54.765Z,94301.00
2023-05-14T04:13:54.784Z,94303.00
2023-05-14T04:14:54.800Z,94301.00
2023-05-14T04:15:54.834Z,94301.00
2023-05-14T04:16:54.810Z,94299.00
2023-05-14T04:17:54.827Z,94299.00
2023-05-14T04:18:54.826Z,94299.00
2023-05-14T04:19:54.811Z,94297.00
2023-05-14T04:20:54.826Z,94293.00
2023-05-14T04:21:54.835Z,94297.00
2023-05-14T04:22:54.838Z,94293.00
2023-05-14T04:23:54.847Z,94291.00
2023-05-14T04:24:54.827Z,94291.00
2023-05-14T04:25:54.856Z,94289.00
2023-05-14T04:26:54.841Z,94291.00
2023-05-14T04:27:54.852Z,94289.00
2023-05-14T04:28:54.851Z,94289.00
2023-05-14T04:29:54.853Z,94287.00
2023-05-14T04:30:54.868Z,94289.00
2023-05-14T04:31:54.883Z,94289.00
2023-05-14T04:32:54.870Z,94291.00
2023-05-14T04:33:54.915Z,94289.00
2023-05-14T04:34:54.867Z,94289.00
2023-05-14T04:35:54.892Z,94285.00
2023-05-14T04:36:54.916Z,94287.00
2023-05-14T04:37:54.882Z,94287.00
2023-05-14T04:38:54.908Z,94289.00
2023-05-14T04:39:54.897Z,94289.00
2023-05-14T04:40:54.936Z,94289.00
2023-05-14T04:41:54.927Z,94291.00
2023-05-14T04:42:54.946Z,94291.00
2023-05-14T04:43:54.943Z,94291.00
2023-05-14T04:44:54.948Z,94291.00
2023-05-14T04:45:54.992Z,94291.00
2023-05-14T04:46:54.995Z,94293.00
2023-05-14T04:47:55.115Z,94295.00
2023-05-14T04:48:55.018Z,94295.00
2023-05-14T04:49:55.021Z,94297.00
2023-05-14T04:50:55.028Z,94297.00
2023-05-14T04:51:55.038Z,94297.00
2023-05-14T04:52:55.054Z,94299.00
2023-05-14T04:53:55.067Z,94297.00
2023-05-14T04:54:55.099Z,94297.00
2023-05-14T04:55:55.111Z,94297.00
2023-05-14T04:56:55.147Z,94297.00
2023-05-14T04:57:55.128Z,94297.00
2023-05-14T04:58:55.144Z,94297.00
2023-05-14T04:59:55.170Z,94297.00
2023-05-14T05:00:55.206Z,94297.00
2023-05-14T05:01:55.162Z,94295.00
2023-05-14T05:02:55.235Z,94297.00
2023-05-14T05:03:55.223Z,94295.00
2023-05-14T05:04:55.198Z,94297.00
2023-05-14T05:05:55.200Z,94291.00
2023-05-14T05:06:55.228Z,94293.00
2023-05-14T05:07:55.224Z,94291.00
2023-05-14T05:08:55.234Z,94293.00
2023-05-14T05:09:55.232Z,94291.00
2023-05-14T05:10:55.255Z,94293.00
2023-05-14T05:11:55.272Z,94291.00
2023-05-14T05:12:55.266Z,94289.00
2023-05-14T05:13:55.278Z,94289.00
2023-05-14T05:14:55.285Z,94287.00
2023-05-14T05:15:55.306Z,94287.00
2023-05-14T05:16:55.320Z,94287.00
2023-05-14T05:17:55.368Z,94287.00
2023-05-14T05:18:55.369Z,94289.00
2023-05-14T05:19:55.343Z,94291.00
2023-05-14T05:20:55.360Z,94291.00
2023-05-14T05:21:55.357Z,94291.00
2023-05-14T05:22:55.384Z,94291.00
2023-05-14T05:23:55.389Z,94291.00
2023-05-14T05:24:55.392Z,94293.00
2023-05-14T05:25:55.426Z,94293.00
2023-05-14T05:26:55.431Z,94293.00
2023-05-14T05:27:55.433Z,94293.00
2023-05-14T05:28:55.445Z,94291.00
2023-05-14T05:29:55.452Z,94293.00
2023-05-14T05:30:55.504Z,94297.00
2023-05-14T05:31:55.585Z,94297.00
2023-05-14T05:32:55.526Z,94299.00
2023-05-14T05:33:55.491Z,94303.00
2023-05-14T05:34:55.504Z,94299.00
2023-05-14T05:35:55.517Z,94301.00
2023-05-14T05:36:55.519Z,94306.00
2023-05-14T05:37:55.521Z,94305.00
2023-05-14T05:38:55.537Z,94303.00
2023-05-14T05:39:55.545Z,94305.00
2023-05-14T05:40:55.547Z,94303.00
2023-05-14T05:41:55.532Z,94305.00
2023-05-14T05:42:55.549Z,94305.00
2023-05-14T05:43:55.561Z,94303.00
2023-05-14T05:44:55.543Z,94301.00
2023-05-14T05:45:55.556Z,94301.00
2023-05-14T05:46:55.665Z,94303.00
2023-05-14T05:47:55.613Z,94305.00
2023-05-14T05:48:55.576Z,94305.00
2023-05-14T05:49:55.553Z,94305.00
2023-05-14T05:50:55.555Z,94306.00
2023-05-14T05:51:55.577Z,94306.00
2023-05-14T05:52:55.576Z,94308.00
2023-05-14T05:53:55.551Z,94308.00
2023-05-14T05:54:55.560Z,94306.00
2023-05-14T05:55:55.561Z,94306.00
2023-05-14T05:56:55.544Z,94305.00
2023-05-14T05:57:55.558Z,94305.00
2023-05-14T05:58:55.555Z,94305.00
2023-05-14T05:59:55.552Z,94303.00
2023-05-14T06:00:55.562Z,94305.00
2023-05-14T06:01:55.604Z,94303.00
2023-05-14T06:02:55.571Z,94301.00
2023-05-14T06:03:55.560Z,94303.00
2023-05-14T06:04:55.576Z,94299.00
2023-05-14T06:05:55.548Z,94299.00
2023-05-14T06:06:55.549Z,94295.00
2023-05-14T06:07:55.556Z,94293.00
2023-05-14T06:08:55.541Z,94291.00
2023-05-14T06:09:55.555Z,94295.00
2023-05-14T06:10:55.562Z,94293.00
2023-05-14T06:11:55.558Z,94291.00
2023-05-14T06:12:55.563Z,94289.00
2023-05-14T06:13:55.572Z,94291.00
2023-05-14T06:14:55.568Z,94289.00
2023-05-14T06:15:55.565Z,94291.00
2023-05-14T06:16:55.725Z,94289.00
2023-05-14T06:17:55.631Z,94289.00
2023-05-14T06:18:55.664Z,94289.00
2023-05-14T06:19:55.575Z,94287.00
2023-05-14T06:20:55.604Z,94287.00
2023-05-14T06:21:55.597Z,94287.00
2023-05-14T06:22:55.592Z,94285.00
2023-05-14T06:23:55.609Z,94283.00
2023-05-14T06:24:55.603Z,94287.00
2023-05-14T06:25:55.614Z,94285.00
2023-05-14T06:26:55.597Z,94285.00
2023-05-14T06:27:55.613Z,94283.00
2023-05-14T06:28:55.602Z,94287.00
2023-05-14T06:29:55.605Z,94285.00
2023-05-14T06:30:55.599Z,94285.00
2023-05-14T06:31:55.609Z,94285.00
2023-05-14T06:32:55.615Z,94283.00
2023-05-14T06:33:55.609Z,94283.00
2023-05-14T06:34:55.614Z,94283.00
2023-05-14T06:35:55.614Z,94281.00
2023-05-14T06:36:55.617Z,94279.00
2023-05-14T06:37:55.605Z,94281.00
2023-05-14T06:38:55.599Z,94279.00
2023-05-14T06:39:57.666Z,94275.00
2023-05-14T06:40:55.615Z,94275.00
2023-05-14T06:41:55.608Z,94277.00
2023-05-14T06:42:55.618Z,94275.00
2023-05-14T06:43:55.604Z,94277.00
2023-05-14T06:44:55.614Z,94275.00
2023-05-14T06:45:55.625Z,94277.00
2023-05-14T06:46:55.645Z,94273.00
2023-05-14T06:47:55.748Z,94273.00
2023-05-14T06:48:58.048Z,94271.00
2023-05-14T06:49:55.660Z,94269.00
2023-05-14T06:50:55.655Z,94269.00
2023-05-14T06:51:55.641Z,94271.00
2023-05-14T06:52:55.633Z,94267.00
2023-05-14T06:53:55.606Z,94267.00
2023-05-14T06:54:55.613Z,94271.00
2023-05-14T06:55:55.608Z,94269.00
2023-05-14T06:56:55.584Z,94273.00
2023-05-14T06:57:55.580Z,94275.00
2023-05-14T06:58:55.572Z,94277.00
2023-05-14T06:59:55.579Z,94275.00
2023-05-14T07:00:55.561Z,94275.00
2023-05-14T07:01:55.586Z,94273.00
2023-05-14T07:02:55.630Z,94275.00
2023-05-14T07:03:55.564Z,94271.00
2023-05-14T07:04:55.527Z,94271.00
2023-05-14T07:05:55.548Z,94273.00
2023-05-14T07:06:55.531Z,94273.00
2023-05-14T07:07:55.528Z,94271.00
2023-05-14T07:08:55.518Z,94269.00
2023-05-14T07:09:55.506Z,94267.00
2023-05-14T07:10:55.486Z,94269.00
2023-05-14T07:11:55.483Z,94265.00
2023-05-14T07:12:55.481Z,94265.00
2023-05-14T07:13:55.495Z,94263.00
2023-05-14T07:14:55.455Z,94259.00
2023-05-14T07:15:55.469Z,94259.00
2023-05-14T07:16:55.496Z,94258.00
2023-05-14T07:17:55.623Z,94254.00
2023-05-14T07:18:55.542Z,94252.00
2023-05-14T07:19:55.442Z,94248.00
2023-05-14T07:20:55.426Z,94248.00
2023-05-14T07:21:55.420Z,94244.00
2023-05-14T07:22:55.428Z,94244.00
2023-05-14T07:23:55.401Z,94242.00
2023-05-14T07:24:55.404Z,94242.00
2023-05-14T07:25:55.401Z,94242.00
2023-05-14T07:26:55.385Z,94240.00
2023-05-14T07:27:55.387Z,94242.00
2023-05-14T07:28:55.386Z,94242.00
2023-05-14T07:29:55.375Z,94242.00
2023-05-14T07:30:55.460Z,94240.00
2023-05-14T07:31:55.471Z,94242.00
2023-05-14T07:32:55.567Z,94238.00
2023-05-14T07:33:55.582Z,94238.00
2023-05-14T07:34:55.616Z,94240.00
2023-05-14T07:35:55.680Z,94236.00
2023-05-14T07:36:55.728Z,94238.00
2023-05-14T07:37:55.764Z,94238.00
2023-05-14T07:38:55.822Z,94236.00
2023-05-14T07:39:55.867Z,94236.00
2023-05-14T07:40:55.891Z,94238.00
2023-05-14T07:41:55.953Z,94234.00
2023-05-14T07:42:55.966Z,94240.00
2023-05-14T07:43:55.999Z,94238.00
2023-05-14T07:44:56.035Z,94232.00
2023-05-14T07:45:56.065Z,94234.00
2023-05-14T07:46:56.103Z,94234.00
2023-05-14T07:47:56.214Z,94228.00
2023-05-14T07:48:56.131Z,94228.00
2023-05-14T07:49:56.157Z,94230.00
2023-05-14T07:50:56.190Z,94224.00
2023-05-14T07:51:56.196Z,94224.00
2023-05-14T07:52:56.219Z,94220.00
2023-05-14T07:53:56.229Z,94220.00
2023-05-14T07:54:56.263Z,94216.00
2023-05-14T07:55:56.276Z,94216.00
2023-05-14T07:56:56.297Z,94216.00
2023-05-14T07:57:56.305Z,94214.00
2023-05-14T07:58:56.316Z,94216.00
2023-05-14T07:59:56.327Z,94212.00
2023-05-14T08:00:56.354Z,94209.00
2023-05-14T08:01:56.409Z,94209.00
2023-05-14T08:02:56.524Z,94205.00
2023-05-14T08:03:56.485Z,94201.00
2023-05-14T08:04:56.436Z,94199.00
2023-05-14T08:05:56.444Z,94195.00
2023-05-14T08:06:56.467Z,94193.00
2023-05-14T08:07:56.478Z,94191.00
2023-05-14T08:08:56.507Z,94191.00
2023-05-14T08:09:56.530Z,94193.00
2023-05-14T08:10:56.575Z,94191.00
2023-05-14T08:11:56.551Z,94191.00
2023-05-14T08:12:56.567Z,94189.00
2023-05-14T08:13:56.587Z,94189.00
2023-05-14T08:14:56.624Z,94187.00
2023-05-14T08:15:56.624Z,94185.00
2023-05-14T08:16:56.735Z,94183.00
2023-05-14T08:17:56.717Z,94183.00
2023-05-14T08:18:56.679Z,94181.00
2023-05-14T08:19:56.721Z,94179.00
2023-05-14T08:20:57.129Z,94181.00
2023-05-14T08:21:56.816Z,94179.00
2023-05-14T08:22:56.891Z,94177.00
2023-05-14T08:23:56.885Z,94177.00
2023-05-14T08:24:56.900Z,94177.00
2023-05-14T08:25:56.890Z,94175.00
2023-05-14T08:26:56.906Z,94175.00
2023-05-14T08:27:56.917Z,94171.00
2023-05-14T08:28:56.972Z,94169.00
2023-05-14T08:29:56.963Z,94169.00
2023-05-14T08:30:56.992Z,94167.00
2023-05-14T08:31:57.006Z,94165.00
2023-05-14T08:32:56.998Z,94165.00
2023-05-14T08:33:56.979Z,94165.00
2023-05-14T08:34:57.062Z,94165.00
2023-05-14T08:35:57.169Z,94165.00
2023-05-14T08:36:57.156Z,94163.00
2023-05-14T08:37:57.165Z,94161.00
2023-05-14T08:38:57.159Z,94159.00
2023-05-14T08:39:57.147Z,94159.00
2023-05-14T08:40:57.147Z,94157.00
2023-05-14T08:41:57.202Z,94156.00
2023-05-14T08:42:57.275Z,94156.00
2023-05-14T08:43:57.401Z,94154.00
2023-05-14T08:44:57.384Z,94152.00
2023-05-14T08:45:57.374Z,94152.00
2023-05-14T08:46:57.379Z,94154.00
2023-05-14T08:47:57.432Z,94152.00
2023-05-14T08:48:57.408Z,94150.00
2023-05-14T08:49:57.385Z,94150.00
2023-05-14T08:50:57.487Z,94152.00
2023-05-14T08:51:57.562Z,94150.00
2023-05-14T08:52:57.649Z,94146.00
2023-05-14T08:53:57.667Z,94148.00
2023-05-14T08:54:57.677Z,94146.00
2023-05-14T08:55:57.734Z,94146.00
2023-05-14T08:56:57.764Z,94140.00
2023-05-14T08:57:57.801Z,94142.00
2023-05-14T08:58:57.833Z,94142.00
2023-05-14T08:59:57.908Z,94138.00
2023-05-14T09:00:57.957Z,94138.00
2023-05-14T09:01:58.063Z,94134.00
2023-05-14T09:02:58.091Z,94136.00
2023-05-14T09:03:58.170Z,94134.00
2023-05-14T09:04:58.206Z,94126.00
2023-05-14T09:06:00.128Z,94126.00
2023-05-14T09:06:58.349Z,94126.00
2023-05-14T09:07:58.374Z,94122.00
2023-05-14T09:08:58.453Z,94120.00
2023-05-14T09:09:58.495Z,94124.00
2023-05-14T09:10:58.586Z,94122.00
2023-05-14T09:11:58.633Z,94120.00
2023-05-14T09:12:58.696Z,94120.00
2023-05-14T09:13:58.763Z,94118.00
2023-05-14T09:14:58.809Z,94120.00
2023-05-14T09:15:58.910Z,94118.00
2023-05-14T09:16:58.927Z,94118.00
2023-05-14T09:17:59.010Z,94118.00
2023-05-14T09:18:59.152Z,94118.00
2023-05-14T09:19:59.114Z,94118.00
2023-05-14T09:20:59.185Z,94116.00
2023-05-14T09:21:59.296Z,94118.00
2023-05-14T09:22:59.294Z,94118.00
2023-05-14T09:23:59.360Z,94116.00
2023-05-14T09:24:59.412Z,94118.00
2023-05-14T09:25:59.483Z,94116.00
2023-05-14T09:26:59.539Z,94116.00
2023-05-14T09:27:59.590Z,94116.00
2023-05-14T09:28:59.641Z,94114.00
2023-05-14T09:29:59.687Z,94112.00
2023-05-14T09:30:59.734Z,94111.00
2023-05-14T09:31:59.878Z,94109.00
2023-05-14T09:32:59.873Z,94107.00
2023-05-14T09:33:59.894Z,94103.00
2023-05-14T09:34:59.960Z,94103.00
2023-05-14T09:36:00.004Z,94105.00
2023-05-14T09:37:00.063Z,94101.00
2023-05-14T09:38:00.171Z,94103.00
2023-05-14T09:39:00.185Z,94103.00
2023-05-14T09:40:00.258Z,94101.00
2023-05-14T09:41:00.305Z,94099.00
2023-05-14T09:42:00.349Z,94097.00
2023-05-14T09:43:00.424Z,94097.00
2023-05-14T09:44:00.489Z,94093.00
2023-05-14T09:45:00.540Z,94093.00
2023-05-14T09:46:00.604Z,94091.00
2023-05-14T09:47:00.711Z,94091.00
2023-05-14T09:48:00.795Z,94089.00
2023-05-14T09:49:00.796Z,94083.00
2023-05-14T09:50:00.856Z,94087.00
2023-05-14T09:51:02.754Z,94081.00
2023-05-14T09:52:00.897Z,94079.00
2023-05-14T09:53:00.898Z,94077.00
2023-05-14T09:54:00.876Z,94077.00
2023-05-14T09:55:00.900Z,94077.00
2023-05-14T09:56:00.883Z,94075.00
2023-05-14T09:57:00.861Z,94075.00
2023-05-14T09:58:00.857Z,94071.00
2023-05-14T09:59:00.855Z,94071.00
2023-05-14T10:00:00.842Z,94069.00
2023-05-14T10:01:00.907Z,94065.00
2023-05-14T10:02:00.849Z,94064.00
2023-05-14T10:03:00.912Z,94065.00
2023-05-14T10:04:00.851Z,94060.00
2023-05-14T10:05:00.809Z,94062.00
2023-05-14T10:06:00.800Z,94060.00
2023-05-14T10:07:00.810Z,94058.00
2023-05-14T10:08:00.793Z,94058.00
2023-05-14T10:09:00.785Z,94056.00
2023-05-14T10:10:00.782Z,94058.00
2023-05-14T10:11:00.756Z,94054.00
2023-05-14T10:12:00.762Z,94052.00
2023-05-14T10:13:00.746Z,94052.00
2023-05-14T10:14:00.751Z,94054.00
2023-05-14T10:15:00.748Z,94050.00
2023-05-14T10:16:00.744Z,94050.00
2023-05-14T10:17:00.748Z,94048.00
2023-05-14T10:18:00.782Z,94050.00
2023-05-14T10:19:00.770Z,94048.00
2023-05-14T10:20:00.718Z,94046.00
2023-05-14T10:21:00.704Z,94046.00
2023-05-14T10:22:00.690Z,94044.00
2023-05-14T10:23:00.680Z,94042.00
2023-05-14T10:24:00.685Z,94036.00
2023-05-14T10:25:00.673Z,94038.00
2023-05-14T10:26:00.657Z,94036.00
2023-05-14T10:27:00.723Z,94036.00
2023-05-14T10:28:00.789Z,94034.00
2023-05-14T10:29:00.849Z,94032.00
2023-05-14T10:30:00.911Z,94034.00
2023-05-14T10:31:01.124Z,94036.00
2023-05-14T10:32:01.021Z,94032.00
2023-05-14T10:33:01.097Z,94030.00
2023-05-14T10:34:01.145Z,94030.00
2023-05-14T10:35:01.219Z,94028.00
2023-05-14T10:36:01.309Z,94030.00
2023-05-14T10:37:01.326Z,94028.00
2023-05-14T10:38:01.401Z,94028.00
2023-05-14T10:39:01.454Z,94028.00
2023-05-14T10:40:01.529Z,94024.00
2023-05-14T10:41:01.596Z,94022.00
2023-05-14T10:42:01.662Z,94020.00
2023-05-14T10:43:01.738Z,94020.00
2023-05-14T10:44:01.775Z,94018.00
2023-05-14T10:45:01.881Z,94018.00
2023-05-14T10:46:01.899Z,94017.00
2023-05-14T10:47:02.107Z,94017.00
2023-05-14T10:48:02.063Z,94017.00
2023-05-14T10:49:02.085Z,94017.00
2023-05-14T10:50:02.187Z,94017.00
2023-05-14T10:51:02.255Z,94017.00
2023-05-14T10:52:02.280Z,94017.00
2023-05-14T10:53:02.317Z,94018.00
2023-05-14T10:54:02.341Z,94017.00
2023-05-14T10:55:03.589Z,94017.00
2023-05-14T10:56:02.444Z,94017.00
2023-05-14T10:57:02.496Z,94013.00
2023-05-14T10:58:02.550Z,94011.00
2023-05-14T10:59:02.594Z,94007.00
2023-05-14T11:00:02.694Z,94003.00
2023-05-14T11:01:02.742Z,94003.00
2023-05-14T11:02:02.796Z,94003.00
2023-05-14T11:03:02.858Z,94001.00
2023-05-14T11:04:02.934Z,93999.00
2023-05-14T11:05:02.954Z,93997.00
2023-05-14T11:06:03.021Z,93995.00
2023-05-14T11:07:03.085Z,93993.00
2023-05-14T11:08:03.161Z,93991.00
2023-05-14T11:09:03.244Z,93993.00
2023-05-14T11:10:03.266Z,93993.00
2023-05-14T11:11:03.352Z,93993.00
2023-05-14T11:12:03.396Z,93993.00
2023-05-14T11:13:03.495Z,93993.00
2023-05-14T11:14:03.543Z,93993.00
2023-05-14T11:15:03.609Z,93997.00
2023-05-14T11:16:15.006Z,93997.00
2023-05-14T11:17:04.756Z,93997.00
2023-05-14T11:18:03.683Z,93997.00
2023-05-14T11:19:03.923Z,93995.00
2023-05-14T11:20:03.644Z,93995.00
2023-05-14T11:21:03.673Z,93995.00
2023-05-14T11:22:03.633Z,93993.00
2023-05-14T11:23:03.624Z,93995.00
2023-05-14T11:24:03.625Z,93993.00
2023-05-14T11:25:03.604Z,93991.00
2023-05-14T11:26:03.764Z,93989.00
2023-05-14T11:27:03.713Z,93989.00
2023-05-14T11:28:03.768Z,93987.00
2023-05-14T11:29:03.831Z,93985.00
2023-05-14T11:30:03.890Z,93987.00
2023-05-14T11:31:03.960Z,93987.00
2023-05-14T11:32:04.100Z,93985.00
2023-05-14T11:33:04.129Z,93987.00
2023-05-14T11:34:04.123Z,93989.00
2023-05-14T11:35:04.190Z,93985.00
2023-05-14T11:36:04.248Z,93991.00
2023-05-14T11:37:04.315Z,93987.00
2023-05-14T11:38:04.379Z,93987.00
2023-05-14T11:39:04.434Z,93987.00
2023-05-14T11:40:04.495Z,93983.00
2023-05-14T11:41:04.542Z,93985.00
2023-05-14T11:42:04.570Z,93989.00
2023-05-14T11:43:04.654Z,93987.00
2023-05-14T11:44:05.075Z,93987.00
2023-05-14T11:45:04.771Z,93987.00